Latest Weather Observations for Mudgee

IDN60801

Issued at 6:32 am EST Sunday 19 April 2015 (issued every 30 minutes, with the page automatically refreshed every 10 minutes)

About weather observations | Map of weather stations | Latest weather observations for NSW | Other Formats
Station Details ID: 062101 Name: MUDGEE AIRPORT AWS Lat: -32.56 Lon: 149.61 Height: 471.0 m
Data from the previous 72 hours. | See also: Recent months at Mudgee
Date/Time
EST
Temp
°C
App
Temp
°C
Dew
Point
Rel
Hum
%
Delta-T
°C
Wind Press
QNH
hPa
Press
MSL
hPa
Rain
since 9 am
mm
Dir
 
Spd
km/h
Gust
km/h
Spd
kts
Gust
kts
19/06:30am 15.3 15.3 15.1 99 0.1 WNW 9 13 5 7 1018.6 1017.7 18.8
19/05:30am 15.4 16.0 15.2 99 0.1 NNW 6 7 3 4 1017.9 1017.0 17.4
19/05:00am 15.1 15.4 14.9 99 0.1 N 7 9 4 5 1017.5 1016.6 17.4
19/04:30am 14.9 15.1 14.7 99 0.1 N 7 9 4 5 1017.2 1016.2 17.4
19/04:19am 14.3 14.3 14.1 99 0.1 NNW 7 9 4 5 1017.0 1016.1 17.4
19/04:01am 14.6 15.6 14.4 99 0.1 NW 2 6 1 3 1016.9 1016.0 17.4
19/04:00am 14.6 15.6 14.4 99 0.1 NW 2 7 1 4 1016.9 1016.0 17.4
19/03:42am 14.8 15.0 14.6 99 0.1 WNW 7 11 4 6 1016.9 1016.0 17.4
19/03:38am 14.8 14.6 14.6 99 0.1 NW 9 11 5 6 1017.0 1016.1 17.4
19/03:30am 14.8 14.2 14.6 99 0.1 WNW 11 11 6 6 1016.9 1016.0 17.4
19/03:26am 14.9 14.3 14.7 99 0.1 WNW 11 11 6 6 1017.0 1016.1 17.4
19/03:00am 15.1 14.2 14.9 99 0.1 NNW 13 13 7 7 1017.2 1016.2 17.4
19/02:36am 15.6 16.0 15.4 99 0.1 WNW 7 9 4 5 1017.2 1016.2 17.4
19/02:30am 15.7 16.2 15.5 99 0.1 WNW 7 9 4 5 1017.2 1016.2 17.4
19/02:23am 15.7 15.8 15.5 99 0.1 NW 9 11 5 6 1017.3 1016.4 17.4
19/02:00am 15.7 15.4 15.5 99 0.1 NW 11 13 6 7 1017.7 1016.8 17.4
19/01:30am 15.9 15.3 15.7 99 0.1 NW 13 17 7 9 1017.8 1016.9 17.2
19/01:00am 16.1 14.8 15.9 99 0.1 NNW 17 20 9 11 1018.4 1017.5 17.2
19/12:30am 16.2 15.4 16.0 99 0.1 NNW 15 19 8 10 1018.2 1017.3 17.2
19/12:26am 16.2 15.0 16.0 99 0.1 NNW 17 19 9 10 1018.2 1017.3 17.2
19/12:00am 16.2 16.1 16.0 99 0.1 NNW 11 15 6 8 1018.3 1017.4 17.2
 
Date/Time
EST
Temp
°C
App
Temp
°C
Dew
Point
Rel
Hum
%
Delta-T
°C
Wind Press
QNH
hPa
Press
MSL
hPa
Rain
since 9 am
mm
Dir
 
Spd
km/h
Gust
km/h
Spd
kts
Gust
kts
18/11:49pm 16.3 16.6 16.1 99 0.1 N 9 11 5 6 1018.3 1017.4 17.2
18/11:44pm 16.2 16.1 16.0 99 0.1 N 11 15 6 8 1018.1 1017.2 17.2
18/11:32pm 16.3 15.9 16.1 99 0.1 NNW 13 15 7 8 1018.4 1017.5 17.2
18/11:30pm 16.3 15.9 16.1 99 0.1 N 13 17 7 9 1018.4 1017.5 17.0
18/11:00pm 16.3 16.6 16.1 99 0.1 N 9 13 5 7 1018.5 1017.6 16.2
18/10:46pm 16.4 17.1 16.2 99 0.1 N 7 9 4 5 1018.4 1017.5 15.8
18/10:30pm 16.4 16.8 16.2 99 0.1 N 9 11 5 6 1018.9 1018.0 15.6
18/10:14pm 16.5 16.9 16.3 99 0.1 N 9 11 5 6 1019.0 1018.2 15.2
18/10:00pm 16.5 16.5 16.3 99 0.1 N 11 15 6 8 1018.8 1017.9 14.6
18/09:30pm 16.6 17.4 16.4 99 0.1 NNE 7 9 4 5 1018.7 1017.8 14.0
18/09:00pm 16.7 17.6 16.5 99 0.1 ENE 7 9 4 5 1018.1 1017.2 13.8
18/08:30pm 16.6 17.4 16.4 99 0.1 N 7 9 4 5 1018.6 1017.7 13.0
18/08:00pm 16.6 18.4 16.4 99 0.1 N 2 6 1 3 1018.2 1017.3 11.8
18/07:30pm 16.7 16.4 16.4 98 0.2 W 13 17 7 9 1018.1 1017.2 8.6
18/07:00pm 17.2 12.8 15.2 88 1.2 NW 32 61 17 33 1017.7 1016.8 3.4
18/06:57pm 17.2 13.4 13.7 80 2.0 NNW 26 61 14 33 1017.6 1016.7 1.6
18/06:55pm 20.4 18.0 14.3 68 3.6 N 20 61 11 33 1017.2 1016.2 0.0
18/06:30pm 22.2 21.1 14.3 61 4.7 N 13 20 7 11 1015.8 1014.9 0.0
18/06:00pm 22.3 20.4 14.2 60 4.8 N 17 19 9 10 1015.8 1014.9 0.0
18/05:30pm 22.6 20.0 13.9 58 5.2 N 20 28 11 15 1015.9 1015.0 0.0
18/05:00pm 23.0 20.6 13.8 56 5.5 N 19 30 10 16 1015.8 1014.9 0.0
18/04:30pm 23.4 19.7 13.8 54 5.7 NNW 26 35 14 19 1015.7 1014.8 0.0
18/04:00pm 23.7 20.0 13.8 53 5.9 NNW 26 37 14 20 1015.8 1014.9 0.0
18/03:30pm 23.5 18.4 13.7 54 5.8 NNW 33 43 18 23 1016.1 1015.2 0.0
18/03:00pm 24.4 20.4 14.2 53 6.1 N 28 37 15 20 1016.1 1015.2 0.0
18/02:30pm 24.3 19.8 13.8 52 6.3 N 30 39 16 21 1016.4 1015.5 0.0
18/02:00pm 24.3 19.5 14.1 53 6.1 N 32 43 17 23 1016.8 1015.9 0.0
18/01:30pm 24.4 19.6 13.9 52 6.3 NNW 32 41 17 22 1016.8 1015.9 0.0
18/01:00pm 23.3 19.3 14.0 56 5.6 N 28 39 15 21 1017.6 1016.7 0.0
18/12:30pm 23.7 19.0 14.4 56 5.6 NNW 32 43 17 23 1018.0 1017.1 0.0
18/12:00pm 23.8 19.1 14.2 55 5.8 N 32 41 17 22 1018.6 1017.7 0.0
18/11:30am 23.2 18.7 13.9 56 5.5 NNW 30 41 16 22 1019.4 1018.5 0.0
18/11:00am 23.0 19.7 14.0 57 5.4 N 24 33 13 18 1020.1 1019.2 0.0
18/10:30am 23.1 19.6 14.4 58 5.2 N 26 35 14 19 1020.4 1019.5 0.0
18/10:00am 22.3 19.8 14.2 60 4.8 N 20 32 11 17 1020.7 1019.8 0.0
18/09:30am 21.1 20.1 14.5 66 3.9 NNW 13 24 7 13 1021.1 1020.3 0.0
18/09:00am 20.0 20.2 14.8 72 3.1 N 7 13 4 7 1021.3 1020.5 0.0
18/08:30am 18.4 19.9 17.6 95 0.5 S 6 7 3 4 1021.4 1020.6 0.0
18/08:00am 17.2 18.4 16.9 98 0.2 S 6 9 3 5 1021.2 1020.4 0.0
18/07:30am 16.6 17.4 16.4 99 0.1 SSE 7 9 4 5 1021.1 1020.3 0.0
18/07:00am 15.0 15.4 14.8 99 0.1 ESE 6 9 3 5 1020.8 1019.9 0.0
18/06:30am 14.4 14.6 14.2 99 0.1 SW 6 9 3 5 1020.6 1019.7 0.0
18/06:00am 15.0 16.6 14.8 99 0.1 CALM 0 0 0 0 1020.4 1019.5 0.0
18/05:30am 15.0 16.6 14.8 99 0.1 CALM 0 0 0 0 1020.4 1019.5 0.0
18/05:00am 14.9 16.0 14.6 98 0.2 ENE 2 9 1 5 1020.3 1019.4 0.0
18/04:30am 15.5 16.1 15.2 98 0.2 ENE 6 9 3 5 1020.3 1019.4 0.0
18/04:00am 16.6 17.4 16.3 98 0.2 ESE 7 9 4 5 1020.1 1019.2 0.0
18/03:30am 16.4 18.4 16.1 98 0.2 CALM 0 0 0 0 1020.0 1019.1 0.0
18/03:14am 16.5 18.6 16.2 98 0.2 CALM 0 0 0 0 1020.0 1019.1 0.0
18/03:00am 16.2 18.2 15.9 98 0.2 CALM 0 0 0 0 1019.9 1019.0 0.0
18/02:30am 16.7 18.5 16.4 98 0.2 E 2 7 1 4 1020.1 1019.2 0.0
18/02:14am 16.7 17.7 16.4 98 0.2 WSW 6 7 3 4 1020.4 1019.5 0.0
18/02:00am 16.7 18.9 16.4 98 0.2 CALM 0 0 0 0 1020.5 1019.6 0.0
18/01:30am 17.0 17.9 16.7 98 0.2 NE 7 11 4 6 1020.6 1019.7 0.0
18/01:00am 17.1 19.1 16.1 94 0.6 CALM 0 0 0 0 1020.9 1020.1 0.0
18/12:30am 17.6 19.7 16.3 92 0.8 CALM 0 0 0 0 1021.1 1020.3 0.0
18/12:00am 18.0 20.2 16.5 91 0.9 CALM 0 0 0 0 1021.1 1020.3 0.0
 
Date/Time
EST
Temp
°C
App
Temp
°C
Dew
Point
Rel
Hum
%
Delta-T
°C
Wind Press
QNH
hPa
Press
MSL
hPa
Rain
since 9 am
mm
Dir
 
Spd
km/h
Gust
km/h
Spd
kts
Gust
kts
17/11:30pm 18.3 20.5 16.5 89 1.1 CALM 0 0 0 0 1021.7 1020.8 0.0
17/11:00pm 18.6 19.1 16.6 88 1.2 SSE 9 13 5 7 1021.4 1020.6 0.0
17/10:30pm 19.7 20.4 16.2 80 2.1 SE 7 11 4 6 1022.0 1021.1 0.0
17/10:00pm 19.8 20.6 16.3 80 2.1 SE 7 9 4 5 1021.9 1021.0 0.0
17/09:30pm 20.5 21.2 16.1 76 2.7 E 7 11 4 6 1021.9 1021.0 0.0
17/09:00pm 21.0 20.6 16.2 74 2.9 ENE 13 22 7 12 1021.8 1020.9 0.0
17/08:30pm 21.5 21.9 16.2 72 3.3 E 9 15 5 8 1021.5 1020.7 0.0
17/08:00pm 21.6 21.5 16.1 71 3.4 ESE 11 15 6 8 1021.4 1020.6 0.0
17/07:30pm 21.9 20.3 16.0 69 3.6 NE 19 24 10 13 1021.1 1020.3 0.0
17/07:00pm 22.3 20.3 15.6 66 4.1 NE 20 24 11 13 1020.9 1020.1 0.0
17/06:30pm 22.6 21.3 15.7 65 4.2 NE 17 20 9 11 1020.7 1019.8 0.0
17/06:00pm 22.5 21.9 15.6 65 4.2 NE 13 15 7 8 1020.5 1019.6 0.0
17/05:30pm 23.8 22.3 15.3 59 5.2 NE 17 20 9 11 1020.1 1019.2 0.0
17/05:00pm 24.3 23.5 15.0 56 5.7 NE 13 15 7 8 1019.9 1019.0 0.0
17/04:30pm 25.1 24.2 14.8 52 6.3 NE 13 15 7 8 1020.0 1019.1 0.0
17/04:00pm 25.3 24.3 14.7 51 6.4 NNE 13 17 7 9 1020.2 1019.3 0.0
17/03:30pm 25.3 24.3 14.7 51 6.5 NNE 13 19 7 10 1020.3 1019.4 0.0
17/03:00pm 25.3 23.9 14.4 50 6.6 NNE 15 20 8 11 1020.6 1019.7 0.0
17/02:30pm 25.5 24.5 14.6 51 6.6 N 13 20 7 11 1020.9 1020.1 0.0
17/02:00pm 25.5 24.9 14.6 51 6.6 N 11 17 6 9 1021.1 1020.3 0.0
17/01:30pm 25.2 24.5 14.3 50 6.6 NNW 11 15 6 8 1021.4 1020.6 0.0
17/01:00pm 24.6 24.4 14.7 54 6.0 NNE 9 13 5 7 1022.1 1021.2 0.0
17/12:30pm 24.6 25.0 15.2 55 5.8 ENE 7 11 4 6 1022.7 1021.8 0.0
17/12:00pm 23.9 23.4 14.9 57 5.5 NE 11 22 6 12 1023.4 1022.6 0.0
17/11:30am 23.6 23.1 14.9 58 5.3 NNE 11 19 6 10 1024.2 1023.3 0.0
17/11:00am 22.8 22.7 15.9 65 4.2 ENE 11 17 6 9 1024.7 1023.9 0.0
17/10:30am 22.0 21.3 15.4 66 4.0 NE 13 20 7 11 1025.1 1024.3 0.0
17/10:00am 21.1 20.3 15.2 69 3.6 NE 13 19 7 10 1025.5 1024.7 0.0
17/09:30am 21.1 19.1 15.6 71 3.3 NE 20 24 11 13 1025.5 1024.7 0.0
17/09:21am 20.9 19.9 15.7 72 3.2 NE 15 22 8 12 1025.6 1024.8 0.0
17/09:00am 20.5 18.8 15.7 74 2.9 NE 19 26 10 14 1025.7 1024.9 0.0
17/08:37am 19.8 19.1 15.4 76 2.7 ENE 13 17 7 9 1025.6 1024.8 0.0
17/08:30am 19.6 18.1 15.3 76 2.6 NE 17 20 9 11 1025.6 1024.8 0.0
17/08:00am 19.5 18.7 15.2 76 2.6 NE 13 15 7 8 1025.3 1024.5 0.0
17/07:30am 19.0 19.8 14.9 77 2.4 E 4 13 2 7 1025.0 1024.2 0.0
17/07:00am 17.1 17.4 14.6 85 1.5 NNE 6 7 3 4 1024.8 1024.0 0.0
17/06:30am 16.0 16.1 14.0 88 1.2 NE 6 9 3 5 1024.3 1023.4 0.0
17/06:00am 15.9 15.9 13.6 86 1.3 NE 6 9 3 5 1024.2 1023.3 0.0
17/05:30am 16.5 17.3 13.6 83 1.7 ESE 2 6 1 3 1023.6 1022.8 0.0
17/05:00am 17.5 16.7 15.1 86 1.4 SSE 13 17 7 9 1023.4 1022.6 0.0
17/04:30am 16.4 15.5 13.7 84 1.6 SSE 11 13 6 7 1023.1 1022.3 0.0
17/04:00am 16.6 17.5 13.9 84 1.6 ESE 2 7 1 4 1023.1 1022.3 0.0
17/03:30am 15.2 16.4 13.7 91 0.9 CALM 0 2 0 1 1023.0 1022.2 0.0
17/03:00am 15.6 15.9 13.4 87 1.3 SSE 4 9 2 5 1022.7 1021.8 0.0
17/02:30am 15.0 15.6 13.2 89 1.0 N 2 7 1 4 1023.0 1022.2 0.0
17/02:00am 15.8 15.4 13.1 84 1.5 SSE 7 9 4 5 1023.3 1022.5 0.0
17/01:30am 15.0 15.9 12.9 87 1.2 CALM 0 0 0 0 1023.5 1022.7 0.0
17/01:00am 15.3 14.5 13.0 86 1.3 NE 9 11 5 6 1023.7 1022.9 0.0
17/12:30am 16.3 17.1 13.8 85 1.4 SW 2 7 1 4 1023.9 1023.0 0.0
17/12:00am 15.4 15.5 12.7 84 1.5 NE 4 9 2 5 1023.7 1022.9 0.0
 
Date/Time
EST
Temp
°C
App
Temp
°C
Dew
Point
Rel
Hum
%
Delta-T
°C
Wind Press
QNH
hPa
Press
MSL
hPa
Rain
since 9 am
mm
Dir
 
Spd
km/h
Gust
km/h
Spd
kts
Gust
kts
16/11:30pm 16.1 17.0 13.0 82 1.8 CALM 0 0 0 0 1023.6 1022.8 0.0
16/11:00pm 16.1 15.6 12.7 80 1.9 NE 7 13 4 7 1023.7 1022.9 0.0
16/10:30pm 17.1 16.3 12.8 76 2.4 NE 9 13 5 7 1023.9 1023.0 0.0
16/10:00pm 17.1 16.8 12.6 75 2.5 NNE 6 11 3 6 1024.0 1023.1 0.0
16/09:30pm 18.2 19.2 13.3 73 2.8 CALM 0 0 0 0 1024.0 1023.1 0.0
16/09:00pm 18.5 17.7 12.9 70 3.2 NE 9 11 5 6 1023.9 1023.0 0.0
16/08:30pm 18.2 17.0 12.9 71 3.0 NNE 11 15 6 8 1023.7 1022.9 0.0
16/08:00pm 19.5 19.8 13.4 68 3.5 NNE 4 9 2 5 1023.6 1022.8 0.0
16/07:30pm 19.2 18.8 12.9 67 3.6 NE 7 11 4 6 1023.3 1022.5 0.0
16/07:00pm 19.5 18.0 13.0 66 3.7 NE 13 13 7 7 1022.9 1022.1 0.0
16/06:30pm 23.9 23.4 12.5 49 6.7 NNE 7 9 4 5 1022.6 1021.7 0.0
16/06:00pm 24.0 23.6 12.9 50 6.5 N 7 9 4 5 1022.3 1021.4 0.0
16/05:30pm 24.7 23.7 12.3 46 7.3 NNW 9 11 5 6 1022.2 1021.3 0.0
16/05:00pm 27.1 25.4 12.3 39 8.7 WNW 13 15 7 8 1022.3 1021.4 0.0
16/04:30pm 28.1 25.9 12.0 36 9.5 WNW 15 19 8 10 1022.1 1021.2 0.0
16/04:00pm 28.5 25.6 12.4 37 9.6 NW 19 26 10 14 1022.1 1021.2 0.0
16/03:30pm 29.1 26.7 12.5 36 9.9 WNW 17 24 9 13 1022.3 1021.4 0.0
16/03:00pm 29.0 25.7 12.8 36 9.7 WNW 22 32 12 17 1022.6 1021.7 0.0
16/02:30pm 28.8 26.0 12.7 37 9.6 W 19 28 10 15 1022.7 1021.8 0.0
16/02:00pm 28.3 26.8 13.0 39 9.2 NNW 13 20 7 11 1022.9 1022.1 0.0
16/01:30pm 28.2 25.2 12.5 37 9.4 WNW 20 32 11 17 1023.3 1022.5 0.0
16/01:00pm 27.9 25.1 12.7 39 9.0 WNW 19 28 10 15 1023.7 1022.9 0.0
16/12:30pm 27.0 24.1 12.3 40 8.7 NW 19 28 10 15 1024.2 1023.3 0.0
16/12:00pm 27.6 25.5 13.5 41 8.5 WNW 17 26 9 14 1024.8 1024.0 0.0
16/11:30am 26.5 22.7 12.5 41 8.3 WNW 24 33 13 18 1025.3 1024.5 0.0
16/11:00am 26.1 24.2 14.2 48 7.2 NNW 17 24 9 13 1025.9 1025.1 0.0
16/10:30am 24.2 21.8 13.7 52 6.3 NNW 19 24 10 13 1026.2 1025.3 0.0
16/10:00am 22.9 22.1 13.9 57 5.3 NW 11 15 6 8 1026.4 1025.5 0.0
16/09:30am 21.3 22.6 14.0 63 4.3 CALM 0 6 0 3 1026.6 1025.8 0.0
16/09:00am 19.7 20.8 13.6 68 3.5 CALM 0 0 0 0 1026.7 1025.9 0.0
16/08:30am 18.0 18.9 13.9 77 2.4 NE 2 6 1 3 1026.6 1025.8 0.0
16/08:00am 15.7 17.0 14.2 91 0.9 CALM 0 4 0 2 1026.6 1025.8 0.0
16/07:30am 13.9 15.0 13.6 98 0.2 CALM 0 0 0 0 1026.2 1025.3 0.0
16/07:00am 12.5 12.8 12.2 98 0.2 SSE 2 6 1 3 1025.9 1025.1 0.0

Other Formats:

Comma delimited format used in spreadsheet applications
http://www.bom.gov.au/fwo/IDN60801/IDN60801.94727.axf

JavaScript Object Notation format (JSON) in row-major order
http://www.bom.gov.au/fwo/IDN60801/IDN60801.94727.json